sensor_id;sensor_type;location;lat;lon;timestamp;P1;durP1;ratioP1;P2;durP2;ratioP2
57535;SDS011;43361;49.790;8.960;2023-07-16T00:08:05;4.50;;;2.70;;
57535;SDS011;43361;49.790;8.960;2023-07-16T00:18:07;5.57;;;2.55;;
57535;SDS011;43361;49.790;8.960;2023-07-16T00:28:07;4.97;;;2.30;;
57535;SDS011;43361;49.790;8.960;2023-07-16T00:38:09;4.55;;;2.47;;
57535;SDS011;43361;49.790;8.960;2023-07-16T00:48:09;4.20;;;2.10;;
57535;SDS011;43361;49.790;8.960;2023-07-16T00:58:11;4.93;;;2.58;;
57535;SDS011;43361;49.790;8.960;2023-07-16T01:08:11;3.03;;;1.75;;
57535;SDS011;43361;49.790;8.960;2023-07-16T01:18:14;3.70;;;2.13;;
57535;SDS011;43361;49.790;8.960;2023-07-16T01:28:19;3.22;;;1.80;;
57535;SDS011;43361;49.790;8.960;2023-07-16T01:38:23;2.97;;;1.50;;
57535;SDS011;43361;49.790;8.960;2023-07-16T01:48:25;3.88;;;1.42;;
57535;SDS011;43361;49.790;8.960;2023-07-16T01:58:29;2.58;;;1.42;;
57535;SDS011;43361;49.790;8.960;2023-07-16T02:08:30;2.97;;;1.70;;
57535;SDS011;43361;49.790;8.960;2023-07-16T02:18:31;1.73;;;1.10;;
57535;SDS011;43361;49.790;8.960;2023-07-16T02:28:32;2.15;;;1.30;;
57535;SDS011;43361;49.790;8.960;2023-07-16T02:38:34;2.55;;;1.30;;
57535;SDS011;43361;49.790;8.960;2023-07-16T02:48:35;1.58;;;1.00;;
57535;SDS011;43361;49.790;8.960;2023-07-16T02:58:36;2.15;;;1.13;;
57535;SDS011;43361;49.790;8.960;2023-07-16T03:08:37;1.67;;;0.90;;
57535;SDS011;43361;49.790;8.960;2023-07-16T03:18:39;1.92;;;1.00;;
57535;SDS011;43361;49.790;8.960;2023-07-16T03:28:39;1.70;;;1.20;;
57535;SDS011;43361;49.790;8.960;2023-07-16T03:38:41;1.65;;;0.90;;
57535;SDS011;43361;49.790;8.960;2023-07-16T03:48:41;1.40;;;0.93;;
57535;SDS011;43361;49.790;8.960;2023-07-16T03:58:43;1.50;;;0.88;;
57535;SDS011;43361;49.790;8.960;2023-07-16T04:08:44;1.30;;;0.80;;
57535;SDS011;43361;49.790;8.960;2023-07-16T04:18:45;1.42;;;0.80;;
57535;SDS011;43361;49.790;8.960;2023-07-16T04:28:46;1.20;;;0.57;;
57535;SDS011;43361;49.790;8.960;2023-07-16T04:38:48;1.40;;;0.90;;
57535;SDS011;43361;49.790;8.960;2023-07-16T04:48:48;1.88;;;0.80;;
57535;SDS011;43361;49.790;8.960;2023-07-16T04:58:50;1.10;;;0.73;;
57535;SDS011;43361;49.790;8.960;2023-07-16T05:08:50;1.00;;;0.60;;
57535;SDS011;43361;49.790;8.960;2023-07-16T05:18:52;1.30;;;0.80;;
57535;SDS011;43361;49.790;8.960;2023-07-16T05:28:52;1.20;;;0.80;;
57535;SDS011;43361;49.790;8.960;2023-07-16T05:38:54;0.90;;;0.70;;
57535;SDS011;43361;49.790;8.960;2023-07-16T05:48:55;1.27;;;0.80;;
57535;SDS011;43361;49.790;8.960;2023-07-16T05:58:56;1.38;;;0.82;;
57535;SDS011;43361;49.790;8.960;2023-07-16T06:08:57;1.20;;;0.73;;
57535;SDS011;43361;49.790;8.960;2023-07-16T06:18:58;4.32;;;1.40;;
57535;SDS011;43361;49.790;8.960;2023-07-16T06:28:59;7.82;;;1.50;;
57535;SDS011;43361;49.790;8.960;2023-07-16T06:39:01;8.75;;;1.42;;
57535;SDS011;43361;49.790;8.960;2023-07-16T06:49:01;5.55;;;1.55;;
57535;SDS011;43361;49.790;8.960;2023-07-16T06:59:03;14.25;;;2.30;;
57535;SDS011;43361;49.790;8.960;2023-07-16T07:09:03;14.98;;;2.78;;
57535;SDS011;43361;49.790;8.960;2023-07-16T07:19:05;7.47;;;2.15;;
57535;SDS011;43361;49.790;8.960;2023-07-16T07:29:05;8.38;;;2.63;;
57535;SDS011;43361;49.790;8.960;2023-07-16T07:39:07;10.63;;;2.20;;
57535;SDS011;43361;49.790;8.960;2023-07-16T07:49:07;7.93;;;2.20;;
57535;SDS011;43361;49.790;8.960;2023-07-16T07:59:09;10.27;;;2.97;;
57535;SDS011;43361;49.790;8.960;2023-07-16T08:09:10;6.72;;;1.67;;
57535;SDS011;43361;49.790;8.960;2023-07-16T08:19:11;10.27;;;2.47;;
57535;SDS011;43361;49.790;8.960;2023-07-16T08:29:12;11.35;;;2.67;;
57535;SDS011;43361;49.790;8.960;2023-07-16T08:39:14;16.88;;;2.70;;
57535;SDS011;43361;49.790;8.960;2023-07-16T08:49:15;16.67;;;2.42;;
57535;SDS011;43361;49.790;8.960;2023-07-16T08:59:18;13.95;;;2.20;;
57535;SDS011;43361;49.790;8.960;2023-07-16T09:09:19;9.10;;;2.33;;
57535;SDS011;43361;49.790;8.960;2023-07-16T09:19:22;13.35;;;2.80;;
57535;SDS011;43361;49.790;8.960;2023-07-16T09:29:24;13.55;;;2.53;;
57535;SDS011;43361;49.790;8.960;2023-07-16T09:39:27;13.80;;;2.72;;
57535;SDS011;43361;49.790;8.960;2023-07-16T09:49:28;13.10;;;2.67;;
57535;SDS011;43361;49.790;8.960;2023-07-16T09:59:30;15.45;;;2.80;;
57535;SDS011;43361;49.790;8.960;2023-07-16T10:09:32;13.43;;;2.70;;
57535;SDS011;43361;49.790;8.960;2023-07-16T10:19:35;13.73;;;2.38;;
57535;SDS011;43361;49.790;8.960;2023-07-16T10:29:45;8.80;;;2.53;;
57535;SDS011;43361;49.790;8.960;2023-07-16T10:39:48;17.02;;;2.42;;
57535;SDS011;43361;49.790;8.960;2023-07-16T10:49:49;13.27;;;2.47;;
57535;SDS011;43361;49.790;8.960;2023-07-16T10:59:51;8.60;;;2.30;;
57535;SDS011;43361;49.790;8.960;2023-07-16T11:09:52;6.05;;;2.22;;
57535;SDS011;43361;49.790;8.960;2023-07-16T11:19:54;6.88;;;2.20;;
57535;SDS011;43361;49.790;8.960;2023-07-16T11:29:56;5.70;;;2.13;;
57535;SDS011;43361;49.790;8.960;2023-07-16T11:39:58;5.90;;;2.22;;
57535;SDS011;43361;49.790;8.960;2023-07-16T11:49:58;10.15;;;2.72;;
57535;SDS011;43361;49.790;8.960;2023-07-16T12:00:00;6.68;;;2.53;;
57535;SDS011;43361;49.790;8.960;2023-07-16T12:10:01;7.18;;;2.30;;
57535;SDS011;43361;49.790;8.960;2023-07-16T12:20:03;5.60;;;2.23;;
57535;SDS011;43361;49.790;8.960;2023-07-16T12:30:04;5.38;;;2.10;;
57535;SDS011;43361;49.790;8.960;2023-07-16T12:40:07;5.80;;;2.28;;
57535;SDS011;43361;49.790;8.960;2023-07-16T12:50:09;4.93;;;2.30;;
57535;SDS011;43361;49.790;8.960;2023-07-16T13:00:11;6.95;;;2.55;;
57535;SDS011;43361;49.790;8.960;2023-07-16T13:10:12;4.40;;;2.00;;
57535;SDS011;43361;49.790;8.960;2023-07-16T13:20:14;5.70;;;2.30;;
57535;SDS011;43361;49.790;8.960;2023-07-16T13:30:14;8.80;;;2.28;;
57535;SDS011;43361;49.790;8.960;2023-07-16T13:40:16;8.18;;;2.28;;
57535;SDS011;43361;49.790;8.960;2023-07-16T13:50:19;5.93;;;2.47;;
57535;SDS011;43361;49.790;8.960;2023-07-16T14:00:21;5.65;;;2.20;;
57535;SDS011;43361;49.790;8.960;2023-07-16T14:10:22;5.88;;;2.55;;
57535;SDS011;43361;49.790;8.960;2023-07-16T14:20:24;4.95;;;2.20;;
57535;SDS011;43361;49.790;8.960;2023-07-16T14:30:24;5.47;;;2.65;;
57535;SDS011;43361;49.790;8.960;2023-07-16T14:40:26;5.10;;;2.35;;
57535;SDS011;43361;49.790;8.960;2023-07-16T14:50:27;5.47;;;2.22;;
57535;SDS011;43361;49.790;8.960;2023-07-16T15:00:28;6.35;;;2.10;;
57535;SDS011;43361;49.790;8.960;2023-07-16T15:10:29;5.43;;;2.58;;
57535;SDS011;43361;49.790;8.960;2023-07-16T15:20:31;8.38;;;2.17;;
57535;SDS011;43361;49.790;8.960;2023-07-16T15:30:31;12.60;;;2.50;;
57535;SDS011;43361;49.790;8.960;2023-07-16T15:40:33;8.40;;;3.20;;
57535;SDS011;43361;49.790;8.960;2023-07-16T15:50:37;8.77;;;2.97;;
57535;SDS011;43361;49.790;8.960;2023-07-16T16:00:38;7.40;;;2.72;;
57535;SDS011;43361;49.790;8.960;2023-07-16T16:10:39;8.38;;;3.20;;
57535;SDS011;43361;49.790;8.960;2023-07-16T16:20:41;9.68;;;2.45;;
57535;SDS011;43361;49.790;8.960;2023-07-16T16:30:42;14.43;;;3.35;;
57535;SDS011;43361;49.790;8.960;2023-07-16T16:40:43;5.97;;;2.45;;
57535;SDS011;43361;49.790;8.960;2023-07-16T16:50:44;6.90;;;2.53;;
57535;SDS011;43361;49.790;8.960;2023-07-16T17:00:46;13.10;;;2.80;;
57535;SDS011;43361;49.790;8.960;2023-07-16T17:10:48;6.90;;;2.50;;
57535;SDS011;43361;49.790;8.960;2023-07-16T17:20:50;7.10;;;2.83;;
57535;SDS011;43361;49.790;8.960;2023-07-16T17:30:50;6.18;;;2.35;;
57535;SDS011;43361;49.790;8.960;2023-07-16T17:40:53;4.72;;;2.47;;
57535;SDS011;43361;49.790;8.960;2023-07-16T17:50:53;4.97;;;2.40;;
57535;SDS011;43361;49.790;8.960;2023-07-16T18:00:55;6.18;;;2.78;;
57535;SDS011;43361;49.790;8.960;2023-07-16T18:10:56;5.22;;;2.22;;
57535;SDS011;43361;49.790;8.960;2023-07-16T18:20:58;5.05;;;2.10;;
57535;SDS011;43361;49.790;8.960;2023-07-16T18:30:59;5.50;;;2.17;;
57535;SDS011;43361;49.790;8.960;2023-07-16T18:41:01;4.57;;;2.47;;
57535;SDS011;43361;49.790;8.960;2023-07-16T18:51:01;3.67;;;2.08;;
57535;SDS011;43361;49.790;8.960;2023-07-16T19:01:04;5.95;;;2.22;;
57535;SDS011;43361;49.790;8.960;2023-07-16T19:11:05;4.57;;;1.98;;
57535;SDS011;43361;49.790;8.960;2023-07-16T19:21:07;3.55;;;2.28;;
57535;SDS011;43361;49.790;8.960;2023-07-16T19:31:07;4.53;;;2.47;;
57535;SDS011;43361;49.790;8.960;2023-07-16T19:41:09;3.40;;;2.10;;
57535;SDS011;43361;49.790;8.960;2023-07-16T19:51:09;6.50;;;2.92;;
57535;SDS011;43361;49.790;8.960;2023-07-16T20:01:11;4.63;;;2.28;;
57535;SDS011;43361;49.790;8.960;2023-07-16T20:11:12;7.65;;;2.55;;
57535;SDS011;43361;49.790;8.960;2023-07-16T20:21:13;4.00;;;2.25;;
57535;SDS011;43361;49.790;8.960;2023-07-16T20:31:20;3.53;;;2.10;;
57535;SDS011;43361;49.790;8.960;2023-07-16T20:41:22;6.97;;;2.58;;
57535;SDS011;43361;49.790;8.960;2023-07-16T20:51:23;4.88;;;2.38;;
57535;SDS011;43361;49.790;8.960;2023-07-16T21:01:25;4.40;;;1.98;;
57535;SDS011;43361;49.790;8.960;2023-07-16T21:11:26;3.50;;;2.20;;
57535;SDS011;43361;49.790;8.960;2023-07-16T21:21:27;3.55;;;2.38;;
57535;SDS011;43361;49.790;8.960;2023-07-16T21:31:28;3.00;;;1.98;;
57535;SDS011;43361;49.790;8.960;2023-07-16T21:41:29;4.20;;;2.00;;
57535;SDS011;43361;49.790;8.960;2023-07-16T21:51:30;4.07;;;2.25;;
57535;SDS011;43361;49.790;8.960;2023-07-16T22:01:32;3.40;;;2.20;;
57535;SDS011;43361;49.790;8.960;2023-07-16T22:11:33;3.17;;;2.00;;
57535;SDS011;43361;49.790;8.960;2023-07-16T22:21:35;4.13;;;2.15;;
57535;SDS011;43361;49.790;8.960;2023-07-16T22:31:35;3.00;;;1.90;;
57535;SDS011;43361;49.790;8.960;2023-07-16T22:41:37;3.42;;;2.00;;
57535;SDS011;43361;49.790;8.960;2023-07-16T22:51:38;3.15;;;1.80;;
57535;SDS011;43361;49.790;8.960;2023-07-16T23:01:39;3.55;;;1.90;;
57535;SDS011;43361;49.790;8.960;2023-07-16T23:11:40;3.38;;;1.75;;
57535;SDS011;43361;49.790;8.960;2023-07-16T23:21:41;2.90;;;2.00;;
57535;SDS011;43361;49.790;8.960;2023-07-16T23:31:42;2.80;;;2.00;;
57535;SDS011;43361;49.790;8.960;2023-07-16T23:41:44;2.90;;;2.00;;
57535;SDS011;43361;49.790;8.960;2023-07-16T23:51:44;4.57;;;2.25;;
